Terminal Aerodrome Forecast
Issued by NWS

Home | Current Version | Previous Version | Text Only | Print | Product List | Glossary On
Versions: 1 2 3 4 5 6 7 8 9 10 11 12 13 14 15 16 17 18 19 20 21 22 23 24 25 26 27 28 29 30 31 32 33 34 35
000
FTUS45 KSLC 251742
TAFBCE
TAF
KBCE 251742Z 2518/2618 29012G18KT 3SM -SN SCT008 BKN035 OVC050
     FM252100 31015G25KT P6SM VCSH SCT008 BKN050
     FM260200 33007KT P6SM BKN050=

USA.gov is the U.S. government's official web portal to all federal, state and local government web resources and services.